Terminal Aerodrome Forecast
Issued by NWS

Home | Current Version | Previous Version | Text Only | Print | Product List | Glossary On
Versions: 1 2 3 4 5 6 7 8 9 10 11 12 13 14 15 16 17 18 19 20 21 22 23 24 25 26 27 28 29 30 31 32 33 34
000
FTAK31 PAFA 062337
TAFASC
TAF
PASC 062337Z 0700/0724 08016KT P6SM OVC012
     FM070600 08012KT P6SM BKN007 OVC012
     FM071000 10010KT 1 1/2SM BR OVC003
     FM071600 09009KT 2SM BR BKN007
     FM072100 09008KT P6SM FEW007 SCT100 SCT250=

USA.gov is the U.S. government's official web portal to all federal, state and local government web resources and services.